sensor_id;sensor_type;location;lat;lon;timestamp;P1;durP1;ratioP1;P2;durP2;ratioP2
2896;SDS011;1458;49.728;9.228;2023-06-10T00:02:10;0.20;;;0.20;;
2896;SDS011;1458;49.728;9.228;2023-06-10T00:04:37;0.20;;;0.20;;
2896;SDS011;1458;49.728;9.228;2023-06-10T00:07:05;0.20;;;0.20;;
2896;SDS011;1458;49.728;9.228;2023-06-10T00:09:33;0.10;;;0.10;;
2896;SDS011;1458;49.728;9.228;2023-06-10T00:12:02;0.20;;;0.20;;
2896;SDS011;1458;49.728;9.228;2023-06-10T00:14:32;0.20;;;0.20;;
2896;SDS011;1458;49.728;9.228;2023-06-10T00:16:59;0.10;;;0.10;;
2896;SDS011;1458;49.728;9.228;2023-06-10T00:19:28;0.20;;;0.20;;
2896;SDS011;1458;49.728;9.228;2023-06-10T00:21:57;0.20;;;0.20;;
2896;SDS011;1458;49.728;9.228;2023-06-10T00:24:24;0.20;;;0.20;;
2896;SDS011;1458;49.728;9.228;2023-06-10T00:26:51;0.20;;;0.20;;
2896;SDS011;1458;49.728;9.228;2023-06-10T00:29:19;0.20;;;0.20;;
2896;SDS011;1458;49.728;9.228;2023-06-10T00:31:46;0.10;;;0.10;;
2896;SDS011;1458;49.728;9.228;2023-06-10T00:34:13;0.20;;;0.20;;
2896;SDS011;1458;49.728;9.228;2023-06-10T00:36:42;0.20;;;0.20;;
2896;SDS011;1458;49.728;9.228;2023-06-10T00:39:10;0.20;;;0.20;;
2896;SDS011;1458;49.728;9.228;2023-06-10T00:41:37;0.20;;;0.20;;
2896;SDS011;1458;49.728;9.228;2023-06-10T00:44:04;0.20;;;0.20;;
2896;SDS011;1458;49.728;9.228;2023-06-10T00:46:32;0.20;;;0.20;;
2896;SDS011;1458;49.728;9.228;2023-06-10T00:49:00;0.20;;;0.20;;
2896;SDS011;1458;49.728;9.228;2023-06-10T00:51:29;0.20;;;0.20;;
2896;SDS011;1458;49.728;9.228;2023-06-10T00:53:58;0.20;;;0.20;;
2896;SDS011;1458;49.728;9.228;2023-06-10T00:56:25;0.20;;;0.20;;
2896;SDS011;1458;49.728;9.228;2023-06-10T00:58:54;0.20;;;0.20;;
2896;SDS011;1458;49.728;9.228;2023-06-10T01:01:21;0.20;;;0.20;;
2896;SDS011;1458;49.728;9.228;2023-06-10T01:03:49;0.20;;;0.20;;
2896;SDS011;1458;49.728;9.228;2023-06-10T01:06:18;0.20;;;0.20;;
2896;SDS011;1458;49.728;9.228;2023-06-10T01:09:05;0.20;;;0.20;;
2896;SDS011;1458;49.728;9.228;2023-06-10T01:11:41;0.20;;;0.20;;
2896;SDS011;1458;49.728;9.228;2023-06-10T01:14:19;0.20;;;0.20;;
2896;SDS011;1458;49.728;9.228;2023-06-10T01:16:47;0.20;;;0.20;;
2896;SDS011;1458;49.728;9.228;2023-06-10T01:19:15;0.20;;;0.20;;
2896;SDS011;1458;49.728;9.228;2023-06-10T01:21:44;0.20;;;0.20;;
2896;SDS011;1458;49.728;9.228;2023-06-10T01:24:13;0.20;;;0.20;;
2896;SDS011;1458;49.728;9.228;2023-06-10T01:26:43;0.20;;;0.20;;
2896;SDS011;1458;49.728;9.228;2023-06-10T01:29:16;0.20;;;0.20;;
2896;SDS011;1458;49.728;9.228;2023-06-10T01:31:48;0.20;;;0.20;;
2896;SDS011;1458;49.728;9.228;2023-06-10T01:34:22;0.20;;;0.20;;
2896;SDS011;1458;49.728;9.228;2023-06-10T01:36:52;0.20;;;0.20;;
2896;SDS011;1458;49.728;9.228;2023-06-10T01:39:22;0.20;;;0.20;;
2896;SDS011;1458;49.728;9.228;2023-06-10T01:41:52;0.20;;;0.20;;
2896;SDS011;1458;49.728;9.228;2023-06-10T01:44:20;0.20;;;0.20;;
2896;SDS011;1458;49.728;9.228;2023-06-10T01:46:48;0.20;;;0.20;;
2896;SDS011;1458;49.728;9.228;2023-06-10T01:49:16;0.20;;;0.20;;
2896;SDS011;1458;49.728;9.228;2023-06-10T01:51:43;0.10;;;0.10;;
2896;SDS011;1458;49.728;9.228;2023-06-10T01:54:12;0.20;;;0.20;;
2896;SDS011;1458;49.728;9.228;2023-06-10T01:56:39;0.20;;;0.20;;
2896;SDS011;1458;49.728;9.228;2023-06-10T01:59:07;0.20;;;0.20;;
2896;SDS011;1458;49.728;9.228;2023-06-10T02:01:34;0.20;;;0.20;;
2896;SDS011;1458;49.728;9.228;2023-06-10T02:04:02;0.20;;;0.20;;
2896;SDS011;1458;49.728;9.228;2023-06-10T02:06:31;0.20;;;0.20;;
2896;SDS011;1458;49.728;9.228;2023-06-10T02:08:59;0.20;;;0.20;;
2896;SDS011;1458;49.728;9.228;2023-06-10T02:11:29;0.20;;;0.20;;
2896;SDS011;1458;49.728;9.228;2023-06-10T02:13:57;0.20;;;0.20;;
2896;SDS011;1458;49.728;9.228;2023-06-10T02:16:24;0.20;;;0.20;;
2896;SDS011;1458;49.728;9.228;2023-06-10T02:18:52;0.17;;;0.17;;
2896;SDS011;1458;49.728;9.228;2023-06-10T02:21:19;0.10;;;0.10;;
2896;SDS011;1458;49.728;9.228;2023-06-10T02:23:47;0.20;;;0.20;;
2896;SDS011;1458;49.728;9.228;2023-06-10T02:26:14;0.20;;;0.20;;
2896;SDS011;1458;49.728;9.228;2023-06-10T02:28:43;0.20;;;0.20;;
2896;SDS011;1458;49.728;9.228;2023-06-10T02:31:12;0.20;;;0.20;;
2896;SDS011;1458;49.728;9.228;2023-06-10T02:33:43;0.20;;;0.20;;
2896;SDS011;1458;49.728;9.228;2023-06-10T02:36:11;0.20;;;0.20;;
2896;SDS011;1458;49.728;9.228;2023-06-10T02:38:40;0.20;;;0.20;;
2896;SDS011;1458;49.728;9.228;2023-06-10T02:41:09;0.20;;;0.20;;
2896;SDS011;1458;49.728;9.228;2023-06-10T02:43:36;0.20;;;0.20;;
2896;SDS011;1458;49.728;9.228;2023-06-10T02:46:06;0.17;;;0.17;;
2896;SDS011;1458;49.728;9.228;2023-06-10T02:48:40;0.10;;;0.10;;
2896;SDS011;1458;49.728;9.228;2023-06-10T02:51:11;0.20;;;0.20;;
2896;SDS011;1458;49.728;9.228;2023-06-10T02:53:41;0.10;;;0.10;;
2896;SDS011;1458;49.728;9.228;2023-06-10T02:56:11;0.20;;;0.20;;
2896;SDS011;1458;49.728;9.228;2023-06-10T02:58:39;0.20;;;0.20;;
2896;SDS011;1458;49.728;9.228;2023-06-10T03:01:10;0.20;;;0.20;;
2896;SDS011;1458;49.728;9.228;2023-06-10T03:03:49;0.20;;;0.20;;
2896;SDS011;1458;49.728;9.228;2023-06-10T03:06:18;0.10;;;0.10;;
2896;SDS011;1458;49.728;9.228;2023-06-10T03:08:46;0.10;;;0.10;;
2896;SDS011;1458;49.728;9.228;2023-06-10T03:11:17;0.20;;;0.20;;
2896;SDS011;1458;49.728;9.228;2023-06-10T03:13:46;0.20;;;0.20;;
2896;SDS011;1458;49.728;9.228;2023-06-10T03:16:17;0.10;;;0.10;;
2896;SDS011;1458;49.728;9.228;2023-06-10T03:18:45;0.20;;;0.20;;
2896;SDS011;1458;49.728;9.228;2023-06-10T03:21:12;0.20;;;0.20;;
2896;SDS011;1458;49.728;9.228;2023-06-10T03:23:40;0.27;;;0.27;;
2896;SDS011;1458;49.728;9.228;2023-06-10T03:26:08;0.20;;;0.20;;
2896;SDS011;1458;49.728;9.228;2023-06-10T03:28:38;0.20;;;0.20;;
2896;SDS011;1458;49.728;9.228;2023-06-10T03:31:07;0.20;;;0.20;;
2896;SDS011;1458;49.728;9.228;2023-06-10T03:33:37;0.20;;;0.20;;
2896;SDS011;1458;49.728;9.228;2023-06-10T03:36:05;0.20;;;0.20;;
2896;SDS011;1458;49.728;9.228;2023-06-10T03:38:33;0.20;;;0.20;;
2896;SDS011;1458;49.728;9.228;2023-06-10T03:41:01;0.20;;;0.20;;
2896;SDS011;1458;49.728;9.228;2023-06-10T03:43:32;0.20;;;0.20;;
2896;SDS011;1458;49.728;9.228;2023-06-10T03:45:59;0.20;;;0.20;;
2896;SDS011;1458;49.728;9.228;2023-06-10T03:48:27;0.20;;;0.20;;
2896;SDS011;1458;49.728;9.228;2023-06-10T03:50:57;0.20;;;0.20;;
2896;SDS011;1458;49.728;9.228;2023-06-10T03:53:25;0.20;;;0.20;;
2896;SDS011;1458;49.728;9.228;2023-06-10T03:55:52;0.20;;;0.20;;
2896;SDS011;1458;49.728;9.228;2023-06-10T03:58:22;0.20;;;0.20;;
2896;SDS011;1458;49.728;9.228;2023-06-10T04:00:50;0.20;;;0.20;;
2896;SDS011;1458;49.728;9.228;2023-06-10T04:03:25;0.20;;;0.20;;
2896;SDS011;1458;49.728;9.228;2023-06-10T04:05:52;0.20;;;0.20;;
2896;SDS011;1458;49.728;9.228;2023-06-10T04:08:21;0.20;;;0.20;;
2896;SDS011;1458;49.728;9.228;2023-06-10T04:10:48;0.20;;;0.20;;
2896;SDS011;1458;49.728;9.228;2023-06-10T04:13:16;0.10;;;0.10;;
2896;SDS011;1458;49.728;9.228;2023-06-10T04:15:52;0.20;;;0.20;;
2896;SDS011;1458;49.728;9.228;2023-06-10T04:18:20;0.20;;;0.20;;
2896;SDS011;1458;49.728;9.228;2023-06-10T04:20:49;0.17;;;0.17;;
2896;SDS011;1458;49.728;9.228;2023-06-10T04:23:16;0.20;;;0.20;;
2896;SDS011;1458;49.728;9.228;2023-06-10T04:25:46;0.10;;;0.10;;
2896;SDS011;1458;49.728;9.228;2023-06-10T04:28:14;0.20;;;0.20;;
2896;SDS011;1458;49.728;9.228;2023-06-10T04:30:42;0.30;;;0.30;;
2896;SDS011;1458;49.728;9.228;2023-06-10T04:33:11;0.40;;;0.40;;
2896;SDS011;1458;49.728;9.228;2023-06-10T04:35:40;1.00;;;1.00;;
2896;SDS011;1458;49.728;9.228;2023-06-10T04:38:10;2.80;;;2.80;;
2896;SDS011;1458;49.728;9.228;2023-06-10T04:40:39;4.60;;;4.60;;
2896;SDS011;1458;49.728;9.228;2023-06-10T04:43:08;7.60;;;7.50;;
2896;SDS011;1458;49.728;9.228;2023-06-10T04:45:36;8.00;;;7.90;;
2896;SDS011;1458;49.728;9.228;2023-06-10T04:48:06;8.80;;;8.60;;
2896;SDS011;1458;49.728;9.228;2023-06-10T04:50:33;8.60;;;8.50;;
2896;SDS011;1458;49.728;9.228;2023-06-10T04:53:01;8.60;;;8.50;;
2896;SDS011;1458;49.728;9.228;2023-06-10T04:55:29;8.40;;;8.30;;
2896;SDS011;1458;49.728;9.228;2023-06-10T04:57:56;7.80;;;7.70;;
2896;SDS011;1458;49.728;9.228;2023-06-10T05:00:25;7.33;;;7.23;;
2896;SDS011;1458;49.728;9.228;2023-06-10T05:02:52;6.80;;;6.70;;
2896;SDS011;1458;49.728;9.228;2023-06-10T05:05:21;6.03;;;6.03;;
2896;SDS011;1458;49.728;9.228;2023-06-10T05:07:48;5.40;;;5.40;;
2896;SDS011;1458;49.728;9.228;2023-06-10T05:10:16;5.40;;;5.40;;
2896;SDS011;1458;49.728;9.228;2023-06-10T05:12:43;4.87;;;4.87;;
2896;SDS011;1458;49.728;9.228;2023-06-10T05:15:11;4.40;;;4.40;;
2896;SDS011;1458;49.728;9.228;2023-06-10T05:17:39;3.60;;;3.60;;
2896;SDS011;1458;49.728;9.228;2023-06-10T05:20:07;3.17;;;3.17;;
2896;SDS011;1458;49.728;9.228;2023-06-10T05:22:36;2.50;;;2.50;;
2896;SDS011;1458;49.728;9.228;2023-06-10T05:25:04;2.20;;;2.20;;
2896;SDS011;1458;49.728;9.228;2023-06-10T05:27:33;2.40;;;2.40;;
2896;SDS011;1458;49.728;9.228;2023-06-10T05:30:01;2.40;;;2.40;;
2896;SDS011;1458;49.728;9.228;2023-06-10T05:32:28;2.20;;;2.20;;
2896;SDS011;1458;49.728;9.228;2023-06-10T05:34:57;2.00;;;2.00;;
2896;SDS011;1458;49.728;9.228;2023-06-10T05:37:25;2.00;;;2.00;;
2896;SDS011;1458;49.728;9.228;2023-06-10T05:39:52;2.10;;;2.10;;
2896;SDS011;1458;49.728;9.228;2023-06-10T05:42:20;2.67;;;2.67;;
2896;SDS011;1458;49.728;9.228;2023-06-10T05:44:47;2.50;;;2.50;;
2896;SDS011;1458;49.728;9.228;2023-06-10T05:47:14;2.40;;;2.40;;
2896;SDS011;1458;49.728;9.228;2023-06-10T05:49:42;2.40;;;2.40;;
2896;SDS011;1458;49.728;9.228;2023-06-10T05:52:12;2.10;;;2.10;;
2896;SDS011;1458;49.728;9.228;2023-06-10T05:54:39;2.40;;;2.40;;
2896;SDS011;1458;49.728;9.228;2023-06-10T05:57:07;2.20;;;2.20;;
2896;SDS011;1458;49.728;9.228;2023-06-10T05:59:34;2.10;;;2.10;;
2896;SDS011;1458;49.728;9.228;2023-06-10T06:02:01;2.20;;;2.20;;
2896;SDS011;1458;49.728;9.228;2023-06-10T06:04:29;2.33;;;2.33;;
2896;SDS011;1458;49.728;9.228;2023-06-10T06:06:57;2.63;;;2.63;;
2896;SDS011;1458;49.728;9.228;2023-06-10T06:09:26;2.70;;;2.70;;
2896;SDS011;1458;49.728;9.228;2023-06-10T06:11:53;2.40;;;2.40;;
2896;SDS011;1458;49.728;9.228;2023-06-10T06:14:20;2.20;;;2.20;;
2896;SDS011;1458;49.728;9.228;2023-06-10T06:16:48;2.33;;;2.33;;
2896;SDS011;1458;49.728;9.228;2023-06-10T06:19:15;2.50;;;2.50;;
2896;SDS011;1458;49.728;9.228;2023-06-10T06:21:43;2.43;;;2.43;;
2896;SDS011;1458;49.728;9.228;2023-06-10T06:24:10;2.40;;;2.40;;
2896;SDS011;1458;49.728;9.228;2023-06-10T06:26:39;2.30;;;2.30;;
2896;SDS011;1458;49.728;9.228;2023-06-10T06:29:06;2.40;;;2.40;;
2896;SDS011;1458;49.728;9.228;2023-06-10T06:31:34;2.70;;;2.70;;
2896;SDS011;1458;49.728;9.228;2023-06-10T06:34:01;2.93;;;2.93;;
2896;SDS011;1458;49.728;9.228;2023-06-10T06:36:29;3.60;;;3.60;;
2896;SDS011;1458;49.728;9.228;2023-06-10T06:38:56;3.50;;;3.50;;
2896;SDS011;1458;49.728;9.228;2023-06-10T06:41:24;4.00;;;4.00;;
2896;SDS011;1458;49.728;9.228;2023-06-10T06:43:54;4.40;;;4.40;;
2896;SDS011;1458;49.728;9.228;2023-06-10T06:46:23;4.60;;;4.60;;
2896;SDS011;1458;49.728;9.228;2023-06-10T06:48:50;4.93;;;4.93;;
2896;SDS011;1458;49.728;9.228;2023-06-10T06:51:18;4.97;;;4.97;;
2896;SDS011;1458;49.728;9.228;2023-06-10T06:53:45;5.90;;;5.90;;
2896;SDS011;1458;49.728;9.228;2023-06-10T06:56:15;6.03;;;6.03;;
2896;SDS011;1458;49.728;9.228;2023-06-10T06:58:42;6.00;;;6.00;;
2896;SDS011;1458;49.728;9.228;2023-06-10T07:01:11;6.60;;;6.60;;
2896;SDS011;1458;49.728;9.228;2023-06-10T07:03:38;7.10;;;7.00;;
2896;SDS011;1458;49.728;9.228;2023-06-10T07:06:06;7.40;;;7.30;;
2896;SDS011;1458;49.728;9.228;2023-06-10T07:08:35;8.00;;;7.90;;
2896;SDS011;1458;49.728;9.228;2023-06-10T07:11:02;8.90;;;8.70;;
2896;SDS011;1458;49.728;9.228;2023-06-10T07:13:29;9.40;;;9.20;;
2896;SDS011;1458;49.728;9.228;2023-06-10T07:15:57;10.10;;;9.90;;
2896;SDS011;1458;49.728;9.228;2023-06-10T07:18:25;10.80;;;10.50;;
2896;SDS011;1458;49.728;9.228;2023-06-10T07:20:53;11.07;;;10.77;;
2896;SDS011;1458;49.728;9.228;2023-06-10T07:23:20;11.50;;;11.20;;
2896;SDS011;1458;49.728;9.228;2023-06-10T07:25:48;11.50;;;11.20;;
2896;SDS011;1458;49.728;9.228;2023-06-10T07:28:15;11.60;;;11.30;;
2896;SDS011;1458;49.728;9.228;2023-06-10T07:30:43;11.70;;;11.40;;
2896;SDS011;1458;49.728;9.228;2023-06-10T07:33:10;11.57;;;11.27;;
2896;SDS011;1458;49.728;9.228;2023-06-10T07:35:39;11.60;;;11.30;;
2896;SDS011;1458;49.728;9.228;2023-06-10T07:38:08;12.23;;;11.83;;
2896;SDS011;1458;49.728;9.228;2023-06-10T07:40:35;11.60;;;11.30;;
2896;SDS011;1458;49.728;9.228;2023-06-10T07:43:03;11.63;;;11.33;;
2896;SDS011;1458;49.728;9.228;2023-06-10T07:45:30;11.77;;;11.47;;
2896;SDS011;1458;49.728;9.228;2023-06-10T07:47:58;11.90;;;11.60;;
2896;SDS011;1458;49.728;9.228;2023-06-10T07:50:25;11.70;;;11.40;;
2896;SDS011;1458;49.728;9.228;2023-06-10T07:52:54;12.17;;;11.77;;
2896;SDS011;1458;49.728;9.228;2023-06-10T07:55:21;12.30;;;11.90;;
2896;SDS011;1458;49.728;9.228;2023-06-10T07:57:51;12.90;;;12.50;;
2896;SDS011;1458;49.728;9.228;2023-06-10T08:00:19;12.70;;;12.30;;
2896;SDS011;1458;49.728;9.228;2023-06-10T08:02:47;13.10;;;12.70;;
2896;SDS011;1458;49.728;9.228;2023-06-10T08:05:14;12.60;;;12.20;;
2896;SDS011;1458;49.728;9.228;2023-06-10T08:07:41;12.80;;;12.40;;
2896;SDS011;1458;49.728;9.228;2023-06-10T08:10:11;12.60;;;12.20;;
2896;SDS011;1458;49.728;9.228;2023-06-10T08:12:38;12.30;;;11.90;;
2896;SDS011;1458;49.728;9.228;2023-06-10T08:15:06;12.70;;;12.30;;
2896;SDS011;1458;49.728;9.228;2023-06-10T08:17:35;12.77;;;12.37;;
2896;SDS011;1458;49.728;9.228;2023-06-10T08:20:04;12.03;;;11.73;;
2896;SDS011;1458;49.728;9.228;2023-06-10T08:22:33;12.70;;;12.30;;
2896;SDS011;1458;49.728;9.228;2023-06-10T08:25:00;12.67;;;12.27;;
2896;SDS011;1458;49.728;9.228;2023-06-10T08:27:29;12.00;;;11.70;;
2896;SDS011;1458;49.728;9.228;2023-06-10T08:29:56;12.40;;;12.00;;
2896;SDS011;1458;49.728;9.228;2023-06-10T08:32:25;12.37;;;11.97;;
2896;SDS011;1458;49.728;9.228;2023-06-10T08:34:53;12.30;;;11.90;;
2896;SDS011;1458;49.728;9.228;2023-06-10T08:37:21;12.40;;;12.00;;
2896;SDS011;1458;49.728;9.228;2023-06-10T08:39:48;12.20;;;11.80;;
2896;SDS011;1458;49.728;9.228;2023-06-10T08:42:17;12.57;;;12.17;;
2896;SDS011;1458;49.728;9.228;2023-06-10T08:44:53;12.30;;;11.90;;
2896;SDS011;1458;49.728;9.228;2023-06-10T08:47:22;12.10;;;11.80;;
2896;SDS011;1458;49.728;9.228;2023-06-10T08:49:52;12.37;;;11.97;;
2896;SDS011;1458;49.728;9.228;2023-06-10T08:52:24;12.40;;;12.00;;
2896;SDS011;1458;49.728;9.228;2023-06-10T08:54:54;11.97;;;11.67;;
2896;SDS011;1458;49.728;9.228;2023-06-10T08:57:26;12.00;;;11.70;;
2896;SDS011;1458;49.728;9.228;2023-06-10T08:59:56;12.80;;;12.40;;
2896;SDS011;1458;49.728;9.228;2023-06-10T09:02:24;12.43;;;12.03;;
2896;SDS011;1458;49.728;9.228;2023-06-10T09:04:53;12.30;;;11.90;;
2896;SDS011;1458;49.728;9.228;2023-06-10T09:07:23;12.43;;;12.03;;
2896;SDS011;1458;49.728;9.228;2023-06-10T09:09:51;12.40;;;12.00;;
2896;SDS011;1458;49.728;9.228;2023-06-10T09:12:19;12.20;;;11.80;;
2896;SDS011;1458;49.728;9.228;2023-06-10T09:14:47;12.20;;;11.80;;
2896;SDS011;1458;49.728;9.228;2023-06-10T09:17:16;12.40;;;12.00;;
2896;SDS011;1458;49.728;9.228;2023-06-10T09:19:44;12.60;;;12.20;;
2896;SDS011;1458;49.728;9.228;2023-06-10T09:22:12;12.63;;;12.23;;
2896;SDS011;1458;49.728;9.228;2023-06-10T09:24:40;12.83;;;12.43;;
2896;SDS011;1458;49.728;9.228;2023-06-10T09:27:08;12.50;;;12.10;;
2896;SDS011;1458;49.728;9.228;2023-06-10T09:29:45;12.20;;;11.83;;
2896;SDS011;1458;49.728;9.228;2023-06-10T09:32:13;12.97;;;12.57;;
2896;SDS011;1458;49.728;9.228;2023-06-10T09:34:43;12.43;;;12.03;;
2896;SDS011;1458;49.728;9.228;2023-06-10T09:37:11;12.00;;;11.70;;
2896;SDS011;1458;49.728;9.228;2023-06-10T09:39:39;12.33;;;11.93;;
2896;SDS011;1458;49.728;9.228;2023-06-10T09:42:15;12.50;;;12.10;;
2896;SDS011;1458;49.728;9.228;2023-06-10T09:44:48;13.23;;;12.83;;
2896;SDS011;1458;49.728;9.228;2023-06-10T09:47:20;12.50;;;12.10;;
2896;SDS011;1458;49.728;9.228;2023-06-10T09:49:48;12.73;;;12.33;;
2896;SDS011;1458;49.728;9.228;2023-06-10T09:52:21;12.40;;;12.00;;
2896;SDS011;1458;49.728;9.228;2023-06-10T09:54:49;12.53;;;12.13;;
2896;SDS011;1458;49.728;9.228;2023-06-10T09:57:17;12.40;;;12.00;;
2896;SDS011;1458;49.728;9.228;2023-06-10T09:59:45;12.40;;;12.00;;
2896;SDS011;1458;49.728;9.228;2023-06-10T10:02:15;12.43;;;12.03;;
2896;SDS011;1458;49.728;9.228;2023-06-10T10:04:45;12.83;;;12.43;;
2896;SDS011;1458;49.728;9.228;2023-06-10T10:07:12;12.53;;;12.13;;
2896;SDS011;1458;49.728;9.228;2023-06-10T10:09:41;12.70;;;12.30;;
2896;SDS011;1458;49.728;9.228;2023-06-10T10:12:09;12.73;;;12.33;;
2896;SDS011;1458;49.728;9.228;2023-06-10T10:14:38;12.53;;;12.13;;
2896;SDS011;1458;49.728;9.228;2023-06-10T10:17:10;12.60;;;12.20;;
2896;SDS011;1458;49.728;9.228;2023-06-10T10:19:40;11.90;;;11.60;;
2896;SDS011;1458;49.728;9.228;2023-06-10T10:22:15;12.40;;;12.00;;
2896;SDS011;1458;49.728;9.228;2023-06-10T10:24:49;12.67;;;12.27;;
2896;SDS011;1458;49.728;9.228;2023-06-10T10:27:20;12.40;;;12.00;;
2896;SDS011;1458;49.728;9.228;2023-06-10T10:29:55;12.83;;;12.43;;
2896;SDS011;1458;49.728;9.228;2023-06-10T10:32:26;12.47;;;12.07;;
2896;SDS011;1458;49.728;9.228;2023-06-10T10:35:06;12.50;;;12.10;;
2896;SDS011;1458;49.728;9.228;2023-06-10T10:37:35;12.60;;;12.20;;
2896;SDS011;1458;49.728;9.228;2023-06-10T10:40:03;12.80;;;12.40;;
2896;SDS011;1458;49.728;9.228;2023-06-10T10:42:33;12.30;;;11.90;;
2896;SDS011;1458;49.728;9.228;2023-06-10T10:45:02;12.50;;;12.10;;
2896;SDS011;1458;49.728;9.228;2023-06-10T10:47:31;12.77;;;12.37;;
2896;SDS011;1458;49.728;9.228;2023-06-10T10:50:04;12.47;;;12.07;;
2896;SDS011;1458;49.728;9.228;2023-06-10T10:52:51;12.70;;;12.30;;
2896;SDS011;1458;49.728;9.228;2023-06-10T10:55:21;12.30;;;11.90;;
2896;SDS011;1458;49.728;9.228;2023-06-10T10:57:55;12.37;;;11.97;;
2896;SDS011;1458;49.728;9.228;2023-06-10T11:00:24;12.50;;;12.10;;
2896;SDS011;1458;49.728;9.228;2023-06-10T11:02:59;12.70;;;12.30;;
2896;SDS011;1458;49.728;9.228;2023-06-10T11:05:39;12.40;;;12.00;;
2896;SDS011;1458;49.728;9.228;2023-06-10T11:08:10;12.50;;;12.10;;
2896;SDS011;1458;49.728;9.228;2023-06-10T11:10:38;12.30;;;11.90;;
2896;SDS011;1458;49.728;9.228;2023-06-10T11:13:07;12.30;;;11.90;;
2896;SDS011;1458;49.728;9.228;2023-06-10T11:15:39;12.53;;;12.13;;
2896;SDS011;1458;49.728;9.228;2023-06-10T11:18:15;12.30;;;11.90;;
2896;SDS011;1458;49.728;9.228;2023-06-10T11:20:54;12.27;;;11.87;;
2896;SDS011;1458;49.728;9.228;2023-06-10T11:23:24;12.50;;;12.10;;
2896;SDS011;1458;49.728;9.228;2023-06-10T11:26:18;12.40;;;12.00;;
2896;SDS011;1458;49.728;9.228;2023-06-10T11:29:01;12.10;;;11.70;;
2896;SDS011;1458;49.728;9.228;2023-06-10T11:31:43;12.50;;;12.10;;
2896;SDS011;1458;49.728;9.228;2023-06-10T11:34:23;12.60;;;12.20;;
2896;SDS011;1458;49.728;9.228;2023-06-10T11:36:54;12.40;;;12.00;;
2896;SDS011;1458;49.728;9.228;2023-06-10T11:39:22;12.50;;;12.10;;
2896;SDS011;1458;49.728;9.228;2023-06-10T11:41:51;12.30;;;11.90;;
2896;SDS011;1458;49.728;9.228;2023-06-10T11:44:19;12.80;;;12.40;;
2896;SDS011;1458;49.728;9.228;2023-06-10T11:46:47;12.73;;;12.33;;
2896;SDS011;1458;49.728;9.228;2023-06-10T11:49:16;12.97;;;12.57;;
2896;SDS011;1458;49.728;9.228;2023-06-10T11:51:44;12.23;;;11.83;;
2896;SDS011;1458;49.728;9.228;2023-06-10T11:54:18;12.10;;;11.70;;
2896;SDS011;1458;49.728;9.228;2023-06-10T11:56:47;11.80;;;11.50;;
2896;SDS011;1458;49.728;9.228;2023-06-10T11:59:15;12.40;;;12.00;;
2896;SDS011;1458;49.728;9.228;2023-06-10T12:01:43;12.10;;;11.70;;
2896;SDS011;1458;49.728;9.228;2023-06-10T12:04:12;12.23;;;11.83;;
2896;SDS011;1458;49.728;9.228;2023-06-10T12:06:41;12.70;;;12.30;;
2896;SDS011;1458;49.728;9.228;2023-06-10T12:09:14;12.30;;;11.90;;
2896;SDS011;1458;49.728;9.228;2023-06-10T12:11:48;12.43;;;12.03;;
2896;SDS011;1458;49.728;9.228;2023-06-10T12:17:23;12.33;;;11.93;;
2896;SDS011;1458;49.728;9.228;2023-06-10T12:20:02;12.27;;;11.87;;
2896;SDS011;1458;49.728;9.228;2023-06-10T12:22:37;12.63;;;12.23;;
2896;SDS011;1458;49.728;9.228;2023-06-10T12:25:08;12.97;;;12.57;;
2896;SDS011;1458;49.728;9.228;2023-06-10T12:27:37;12.90;;;12.50;;
2896;SDS011;1458;49.728;9.228;2023-06-10T12:30:18;13.10;;;12.70;;
2896;SDS011;1458;49.728;9.228;2023-06-10T12:32:47;12.03;;;11.63;;
2896;SDS011;1458;49.728;9.228;2023-06-10T12:35:15;13.10;;;12.70;;
2896;SDS011;1458;49.728;9.228;2023-06-10T12:37:54;12.60;;;12.20;;
2896;SDS011;1458;49.728;9.228;2023-06-10T12:40:27;12.77;;;12.37;;
2896;SDS011;1458;49.728;9.228;2023-06-10T12:42:56;12.33;;;11.93;;
2896;SDS011;1458;49.728;9.228;2023-06-10T12:45:27;12.40;;;12.00;;
2896;SDS011;1458;49.728;9.228;2023-06-10T12:48:05;12.60;;;12.20;;
2896;SDS011;1458;49.728;9.228;2023-06-10T12:50:35;12.87;;;12.47;;
2896;SDS011;1458;49.728;9.228;2023-06-10T12:53:04;12.80;;;12.40;;
2896;SDS011;1458;49.728;9.228;2023-06-10T12:55:33;12.90;;;12.50;;
2896;SDS011;1458;49.728;9.228;2023-06-10T12:58:01;12.50;;;12.10;;
2896;SDS011;1458;49.728;9.228;2023-06-10T13:00:29;12.87;;;12.47;;
2896;SDS011;1458;49.728;9.228;2023-06-10T13:02:56;12.70;;;12.30;;
2896;SDS011;1458;49.728;9.228;2023-06-10T13:05:27;13.03;;;12.63;;
2896;SDS011;1458;49.728;9.228;2023-06-10T13:07:57;13.40;;;13.00;;
2896;SDS011;1458;49.728;9.228;2023-06-10T13:10:25;13.30;;;12.90;;
2896;SDS011;1458;49.728;9.228;2023-06-10T13:12:54;12.80;;;12.40;;
2896;SDS011;1458;49.728;9.228;2023-06-10T13:15:22;12.60;;;12.20;;
2896;SDS011;1458;49.728;9.228;2023-06-10T13:17:51;12.60;;;12.20;;
2896;SDS011;1458;49.728;9.228;2023-06-10T13:20:19;12.63;;;12.23;;
2896;SDS011;1458;49.728;9.228;2023-06-10T13:22:47;13.00;;;12.60;;
2896;SDS011;1458;49.728;9.228;2023-06-10T13:25:14;12.60;;;12.20;;
2896;SDS011;1458;49.728;9.228;2023-06-10T13:27:42;13.00;;;12.60;;
2896;SDS011;1458;49.728;9.228;2023-06-10T13:30:12;13.20;;;12.80;;
2896;SDS011;1458;49.728;9.228;2023-06-10T13:32:40;13.03;;;12.63;;
2896;SDS011;1458;49.728;9.228;2023-06-10T13:35:07;13.20;;;12.80;;
2896;SDS011;1458;49.728;9.228;2023-06-10T13:37:36;13.10;;;12.70;;
2896;SDS011;1458;49.728;9.228;2023-06-10T13:40:04;13.00;;;12.60;;
2896;SDS011;1458;49.728;9.228;2023-06-10T13:42:34;13.17;;;12.77;;
2896;SDS011;1458;49.728;9.228;2023-06-10T13:45:02;13.07;;;12.67;;
2896;SDS011;1458;49.728;9.228;2023-06-10T13:47:33;13.33;;;12.93;;
2896;SDS011;1458;49.728;9.228;2023-06-10T13:50:00;13.20;;;12.80;;
2896;SDS011;1458;49.728;9.228;2023-06-10T13:52:27;13.33;;;12.93;;
2896;SDS011;1458;49.728;9.228;2023-06-10T13:54:55;13.30;;;12.90;;
2896;SDS011;1458;49.728;9.228;2023-06-10T13:57:22;13.00;;;12.60;;
2896;SDS011;1458;49.728;9.228;2023-06-10T13:59:50;12.90;;;12.50;;
2896;SDS011;1458;49.728;9.228;2023-06-10T14:02:17;13.70;;;13.20;;
2896;SDS011;1458;49.728;9.228;2023-06-10T14:04:46;13.03;;;12.63;;
2896;SDS011;1458;49.728;9.228;2023-06-10T14:07:14;13.10;;;12.70;;
2896;SDS011;1458;49.728;9.228;2023-06-10T14:09:41;13.27;;;12.87;;
2896;SDS011;1458;49.728;9.228;2023-06-10T14:12:10;13.20;;;12.80;;
2896;SDS011;1458;49.728;9.228;2023-06-10T14:14:38;13.60;;;13.13;;
2896;SDS011;1458;49.728;9.228;2023-06-10T14:17:05;13.20;;;12.80;;
2896;SDS011;1458;49.728;9.228;2023-06-10T14:19:33;13.97;;;13.47;;
2896;SDS011;1458;49.728;9.228;2023-06-10T14:22:02;12.77;;;12.37;;
2896;SDS011;1458;49.728;9.228;2023-06-10T14:24:30;13.00;;;12.60;;
2896;SDS011;1458;49.728;9.228;2023-06-10T14:26:57;12.90;;;12.50;;
2896;SDS011;1458;49.728;9.228;2023-06-10T14:29:25;13.03;;;12.63;;
2896;SDS011;1458;49.728;9.228;2023-06-10T14:31:54;13.00;;;12.60;;
2896;SDS011;1458;49.728;9.228;2023-06-10T14:34:21;13.20;;;12.80;;
2896;SDS011;1458;49.728;9.228;2023-06-10T14:36:53;13.00;;;12.60;;
2896;SDS011;1458;49.728;9.228;2023-06-10T14:39:22;13.10;;;12.70;;
2896;SDS011;1458;49.728;9.228;2023-06-10T14:41:50;13.67;;;13.17;;
2896;SDS011;1458;49.728;9.228;2023-06-10T14:44:18;12.70;;;12.30;;
2896;SDS011;1458;49.728;9.228;2023-06-10T14:46:45;12.90;;;12.50;;
2896;SDS011;1458;49.728;9.228;2023-06-10T14:49:13;12.97;;;12.57;;
2896;SDS011;1458;49.728;9.228;2023-06-10T14:51:41;12.60;;;12.20;;
2896;SDS011;1458;49.728;9.228;2023-06-10T14:54:09;13.20;;;12.80;;
2896;SDS011;1458;49.728;9.228;2023-06-10T14:56:39;13.00;;;12.60;;
2896;SDS011;1458;49.728;9.228;2023-06-10T14:59:06;13.00;;;12.60;;
2896;SDS011;1458;49.728;9.228;2023-06-10T15:01:34;13.33;;;12.93;;
2896;SDS011;1458;49.728;9.228;2023-06-10T15:04:02;12.80;;;12.40;;
2896;SDS011;1458;49.728;9.228;2023-06-10T15:06:29;12.90;;;12.50;;
2896;SDS011;1458;49.728;9.228;2023-06-10T15:08:57;13.53;;;13.03;;
2896;SDS011;1458;49.728;9.228;2023-06-10T15:11:24;13.00;;;12.60;;
2896;SDS011;1458;49.728;9.228;2023-06-10T15:13:53;12.80;;;12.40;;
2896;SDS011;1458;49.728;9.228;2023-06-10T15:16:21;13.13;;;12.73;;